sensor_id;sensor_type;location;lat;lon;timestamp;pressure;altitude;pressure_sealevel;temperature;humidity
43770;BME280;6597;52.218;9.882;2022-07-05T00:01:16;101205.13;;;15.85;78.35
43770;BME280;6597;52.218;9.882;2022-07-05T00:03:42;101201.09;;;15.78;78.48
43770;BME280;6597;52.218;9.882;2022-07-05T00:06:10;101192.44;;;15.74;78.44
43770;BME280;6597;52.218;9.882;2022-07-05T00:08:38;101196.16;;;15.70;78.66
43770;BME280;6597;52.218;9.882;2022-07-05T00:11:04;101190.19;;;15.67;78.92
43770;BME280;6597;52.218;9.882;2022-07-05T00:13:31;101194.78;;;15.63;79.00
43770;BME280;6597;52.218;9.882;2022-07-05T00:15:57;101189.66;;;15.59;79.39
43770;BME280;6597;52.218;9.882;2022-07-05T00:18:24;101200.31;;;15.57;79.15
43770;BME280;6597;52.218;9.882;2022-07-05T00:20:50;101179.66;;;15.46;78.93
43770;BME280;6597;52.218;9.882;2022-07-05T00:23:18;101191.88;;;15.49;79.34
43770;BME280;6597;52.218;9.882;2022-07-05T00:25:45;101199.19;;;15.44;79.72
43770;BME280;6597;52.218;9.882;2022-07-05T00:28:12;101203.78;;;15.40;79.98
43770;BME280;6597;52.218;9.882;2022-07-05T00:30:39;101197.00;;;15.35;80.11
43770;BME280;6597;52.218;9.882;2022-07-05T00:33:05;101198.06;;;15.31;80.14
43770;BME280;6597;52.218;9.882;2022-07-05T00:35:32;101207.06;;;15.26;80.36
43770;BME280;6597;52.218;9.882;2022-07-05T00:37:59;101201.13;;;15.21;80.68
43770;BME280;6597;52.218;9.882;2022-07-05T00:40:27;101204.00;;;15.17;81.28
43770;BME280;6597;52.218;9.882;2022-07-05T00:42:53;101207.72;;;15.13;81.02
43770;BME280;6597;52.218;9.882;2022-07-05T00:45:20;101207.72;;;15.13;81.30
43770;BME280;6597;52.218;9.882;2022-07-05T00:47:47;101208.66;;;15.12;81.68
43770;BME280;6597;52.218;9.882;2022-07-05T00:50:14;101209.72;;;15.08;81.26
43770;BME280;6597;52.218;9.882;2022-07-05T00:52:40;101215.09;;;15.06;81.69
43770;BME280;6597;52.218;9.882;2022-07-05T00:55:08;101217.88;;;15.03;81.79
43770;BME280;6597;52.218;9.882;2022-07-05T00:57:36;101216.31;;;14.99;82.18
43770;BME280;6597;52.218;9.882;2022-07-05T01:00:04;101217.34;;;14.95;82.32
43770;BME280;6597;52.218;9.882;2022-07-05T01:02:31;101211.28;;;14.93;82.18
43770;BME280;6597;52.218;9.882;2022-07-05T01:04:58;101213.28;;;14.88;82.63
43770;BME280;6597;52.218;9.882;2022-07-05T01:07:25;101217.00;;;14.84;82.77
43770;BME280;6597;52.218;9.882;2022-07-05T01:09:52;101213.69;;;14.79;82.87
43770;BME280;6597;52.218;9.882;2022-07-05T01:12:19;101205.91;;;14.76;83.44
43770;BME280;6597;52.218;9.882;2022-07-05T01:14:47;101199.78;;;14.75;84.08
43770;BME280;6597;52.218;9.882;2022-07-05T01:17:15;101201.47;;;14.76;84.05
43770;BME280;6597;52.218;9.882;2022-07-05T01:19:42;101197.78;;;14.80;84.41
43770;BME280;6597;52.218;9.882;2022-07-05T01:22:12;101200.34;;;14.82;84.89
43770;BME280;6597;52.218;9.882;2022-07-05T01:24:43;101207.63;;;14.77;84.99
43770;BME280;6597;52.218;9.882;2022-07-05T01:27:11;101206.13;;;14.71;85.30
43770;BME280;6597;52.218;9.882;2022-07-05T01:29:38;101208.19;;;14.65;85.61
43770;BME280;6597;52.218;9.882;2022-07-05T01:32:05;101207.59;;;14.58;86.07
43770;BME280;6597;52.218;9.882;2022-07-05T01:34:32;101206.84;;;14.54;85.74
43770;BME280;6597;52.218;9.882;2022-07-05T01:36:59;101206.00;;;14.54;86.05
43770;BME280;6597;52.218;9.882;2022-07-05T01:39:25;101210.44;;;14.53;86.60
43770;BME280;6597;52.218;9.882;2022-07-05T01:41:53;101202.44;;;14.55;86.48
43770;BME280;6597;52.218;9.882;2022-07-05T01:44:20;101199.16;;;14.50;86.83
43770;BME280;6597;52.218;9.882;2022-07-05T01:46:51;101203.84;;;14.43;87.50
43770;BME280;6597;52.218;9.882;2022-07-05T01:49:21;101199.53;;;14.41;87.48
43770;BME280;6597;52.218;9.882;2022-07-05T01:51:53;101201.44;;;14.37;87.80
43770;BME280;6597;52.218;9.882;2022-07-05T01:54:20;101203.28;;;14.35;87.90
43770;BME280;6597;52.218;9.882;2022-07-05T01:56:47;101203.47;;;14.30;88.01
43770;BME280;6597;52.218;9.882;2022-07-05T01:59:15;101194.97;;;14.24;87.68
43770;BME280;6597;52.218;9.882;2022-07-05T02:01:42;101211.94;;;14.18;87.81
43770;BME280;6597;52.218;9.882;2022-07-05T02:04:10;101214.78;;;14.14;87.86
43770;BME280;6597;52.218;9.882;2022-07-05T02:06:37;101222.09;;;14.07;87.56
43770;BME280;6597;52.218;9.882;2022-07-05T02:09:06;101214.38;;;14.02;87.84
43770;BME280;6597;52.218;9.882;2022-07-05T02:11:33;101207.50;;;13.98;88.09
43770;BME280;6597;52.218;9.882;2022-07-05T02:14:01;101212.88;;;13.95;88.14
43770;BME280;6597;52.218;9.882;2022-07-05T02:16:33;101213.09;;;13.91;88.44
43770;BME280;6597;52.218;9.882;2022-07-05T02:19:00;101203.66;;;13.85;88.79
43770;BME280;6597;52.218;9.882;2022-07-05T02:21:30;101205.63;;;13.80;89.03
43770;BME280;6597;52.218;9.882;2022-07-05T02:23:57;101204.16;;;13.73;88.58
43770;BME280;6597;52.218;9.882;2022-07-05T02:26:27;101214.91;;;13.68;88.57
43770;BME280;6597;52.218;9.882;2022-07-05T02:28:54;101209.00;;;13.62;89.29
43770;BME280;6597;52.218;9.882;2022-07-05T02:31:21;101212.75;;;13.56;88.69
43770;BME280;6597;52.218;9.882;2022-07-05T02:33:52;101205.09;;;13.50;89.14
43770;BME280;6597;52.218;9.882;2022-07-05T02:36:21;101210.47;;;13.47;89.77
43770;BME280;6597;52.218;9.882;2022-07-05T02:38:48;101207.97;;;13.44;89.52
43770;BME280;6597;52.218;9.882;2022-07-05T02:41:14;101212.50;;;13.41;90.07
43770;BME280;6597;52.218;9.882;2022-07-05T02:43:44;101208.16;;;13.39;90.35
43770;BME280;6597;52.218;9.882;2022-07-05T02:46:12;101206.50;;;13.37;90.12
43770;BME280;6597;52.218;9.882;2022-07-05T02:48:40;101207.47;;;13.34;90.61
43770;BME280;6597;52.218;9.882;2022-07-05T02:51:08;101204.94;;;13.31;90.77
43770;BME280;6597;52.218;9.882;2022-07-05T02:53:35;101208.50;;;13.30;91.95
43770;BME280;6597;52.218;9.882;2022-07-05T02:56:05;101209.41;;;13.29;90.96
43770;BME280;6597;52.218;9.882;2022-07-05T02:58:31;101209.34;;;13.31;92.07
43770;BME280;6597;52.218;9.882;2022-07-05T03:00:59;101209.41;;;13.29;92.11
43770;BME280;6597;52.218;9.882;2022-07-05T03:03:29;101205.00;;;13.30;92.98
43770;BME280;6597;52.218;9.882;2022-07-05T03:05:57;101213.03;;;13.27;93.43
43770;BME280;6597;52.218;9.882;2022-07-05T03:08:25;101214.06;;;13.23;93.52
43770;BME280;6597;52.218;9.882;2022-07-05T03:10:52;101218.50;;;13.22;93.33
43770;BME280;6597;52.218;9.882;2022-07-05T03:13:19;101216.66;;;13.24;94.07
43770;BME280;6597;52.218;9.882;2022-07-05T03:15:45;101221.91;;;13.24;94.76
43770;BME280;6597;52.218;9.882;2022-07-05T03:18:15;101222.72;;;13.26;95.34
43770;BME280;6597;52.218;9.882;2022-07-05T03:20:42;101226.03;;;13.31;94.62
43770;BME280;6597;52.218;9.882;2022-07-05T03:23:09;101221.47;;;13.36;94.75
43770;BME280;6597;52.218;9.882;2022-07-05T03:25:46;101220.53;;;13.37;95.74
43770;BME280;6597;52.218;9.882;2022-07-05T03:28:13;101221.28;;;13.41;96.68
43770;BME280;6597;52.218;9.882;2022-07-05T03:30:41;101222.03;;;13.45;96.17
43770;BME280;6597;52.218;9.882;2022-07-05T03:33:08;101227.09;;;13.49;96.88
43770;BME280;6597;52.218;9.882;2022-07-05T03:35:37;101236.50;;;13.56;97.54
43770;BME280;6597;52.218;9.882;2022-07-05T03:38:04;101228.44;;;13.59;97.46
43770;BME280;6597;52.218;9.882;2022-07-05T03:40:31;101237.88;;;13.65;97.15
43770;BME280;6597;52.218;9.882;2022-07-05T03:43:00;101225.53;;;13.67;96.99
43770;BME280;6597;52.218;9.882;2022-07-05T03:45:30;101228.09;;;13.68;96.61
43770;BME280;6597;52.218;9.882;2022-07-05T03:47:57;101232.38;;;13.71;96.28
43770;BME280;6597;52.218;9.882;2022-07-05T03:50:25;101233.25;;;13.72;96.10
43770;BME280;6597;52.218;9.882;2022-07-05T03:52:51;101233.25;;;13.72;96.36
43770;BME280;6597;52.218;9.882;2022-07-05T03:55:18;101241.03;;;13.75;95.40
43770;BME280;6597;52.218;9.882;2022-07-05T03:57:46;101242.88;;;13.73;95.24
43770;BME280;6597;52.218;9.882;2022-07-05T04:00:15;101248.22;;;13.71;95.20
43770;BME280;6597;52.218;9.882;2022-07-05T04:02:50;101243.88;;;13.70;94.77
43770;BME280;6597;52.218;9.882;2022-07-05T04:05:17;101242.22;;;13.67;94.26
43770;BME280;6597;52.218;9.882;2022-07-05T04:07:49;101246.44;;;13.72;94.15
43770;BME280;6597;52.218;9.882;2022-07-05T04:10:17;101250.78;;;13.73;94.51
43770;BME280;6597;52.218;9.882;2022-07-05T04:12:44;101249.03;;;13.73;95.03
43770;BME280;6597;52.218;9.882;2022-07-05T04:15:12;101247.19;;;13.75;95.32
43770;BME280;6597;52.218;9.882;2022-07-05T04:17:47;101246.91;;;13.81;95.26
43770;BME280;6597;52.218;9.882;2022-07-05T04:20:15;101254.72;;;13.84;95.24
43770;BME280;6597;52.218;9.882;2022-07-05T04:22:42;101258.88;;;13.90;95.57
43770;BME280;6597;52.218;9.882;2022-07-05T04:25:10;101261.31;;;13.94;95.73
43770;BME280;6597;52.218;9.882;2022-07-05T04:27:44;101259.47;;;13.96;95.25
43770;BME280;6597;52.218;9.882;2022-07-05T04:30:12;101261.16;;;13.99;95.82
43770;BME280;6597;52.218;9.882;2022-07-05T04:32:40;101254.09;;;13.99;96.33
43770;BME280;6597;52.218;9.882;2022-07-05T04:35:09;101258.19;;;14.07;96.76
43770;BME280;6597;52.218;9.882;2022-07-05T04:37:36;101260.66;;;14.11;96.89
43770;BME280;6597;52.218;9.882;2022-07-05T04:40:04;101265.72;;;14.16;96.75
43770;BME280;6597;52.218;9.882;2022-07-05T04:42:31;101269.03;;;14.21;96.75
43770;BME280;6597;52.218;9.882;2022-07-05T04:44:58;101263.41;;;14.28;96.94
43770;BME280;6597;52.218;9.882;2022-07-05T04:47:24;101260.34;;;14.39;97.22
43770;BME280;6597;52.218;9.882;2022-07-05T04:49:51;101261.81;;;14.46;97.06
43770;BME280;6597;52.218;9.882;2022-07-05T04:52:19;101267.69;;;14.53;97.22
43770;BME280;6597;52.218;9.882;2022-07-05T04:54:46;101259.25;;;14.65;96.66
43770;BME280;6597;52.218;9.882;2022-07-05T04:57:13;101256.19;;;14.74;96.21
43770;BME280;6597;52.218;9.882;2022-07-05T04:59:39;101260.19;;;14.83;96.10
43770;BME280;6597;52.218;9.882;2022-07-05T05:02:06;101267.06;;;14.87;95.79
43770;BME280;6597;52.218;9.882;2022-07-05T05:04:32;101264.16;;;14.93;95.78
43770;BME280;6597;52.218;9.882;2022-07-05T05:06:59;101263.91;;;14.99;96.04
43770;BME280;6597;52.218;9.882;2022-07-05T05:09:27;101250.53;;;15.02;96.28
43770;BME280;6597;52.218;9.882;2022-07-05T05:11:53;101259.31;;;15.21;95.79
43770;BME280;6597;52.218;9.882;2022-07-05T05:14:20;101269.13;;;15.38;95.37
43770;BME280;6597;52.218;9.882;2022-07-05T05:16:46;101272.97;;;15.50;94.85
43770;BME280;6597;52.218;9.882;2022-07-05T05:19:13;101277.84;;;15.59;94.46
43770;BME280;6597;52.218;9.882;2022-07-05T05:21:40;101265.56;;;15.58;93.31
43770;BME280;6597;52.218;9.882;2022-07-05T05:24:07;101281.38;;;15.60;93.41
43770;BME280;6597;52.218;9.882;2022-07-05T05:26:34;101279.56;;;15.60;94.01
43770;BME280;6597;52.218;9.882;2022-07-05T05:29:01;101284.53;;;15.68;93.67
43770;BME280;6597;52.218;9.882;2022-07-05T05:31:29;101285.16;;;15.73;93.36
43770;BME280;6597;52.218;9.882;2022-07-05T05:33:55;101283.06;;;15.79;92.90
43770;BME280;6597;52.218;9.882;2022-07-05T05:36:22;101279.63;;;15.77;92.68
43770;BME280;6597;52.218;9.882;2022-07-05T05:38:48;101279.50;;;15.80;92.87
43770;BME280;6597;52.218;9.882;2022-07-05T05:41:15;101285.34;;;15.87;92.98
43770;BME280;6597;52.218;9.882;2022-07-05T05:43:43;101293.56;;;16.00;92.86
43770;BME280;6597;52.218;9.882;2022-07-05T05:46:09;101296.53;;;16.11;92.88
43770;BME280;6597;52.218;9.882;2022-07-05T05:48:36;101299.34;;;16.25;91.75
43770;BME280;6597;52.218;9.882;2022-07-05T05:51:03;101303.19;;;16.37;89.55
43770;BME280;6597;52.218;9.882;2022-07-05T05:53:30;101300.06;;;16.46;89.59
43770;BME280;6597;52.218;9.882;2022-07-05T05:55:57;101302.22;;;16.55;89.16
43770;BME280;6597;52.218;9.882;2022-07-05T05:58:24;101298.44;;;16.61;89.13
43770;BME280;6597;52.218;9.882;2022-07-05T06:00:52;101308.75;;;16.67;88.88
43770;BME280;6597;52.218;9.882;2022-07-05T06:03:20;101314.50;;;16.75;88.72
43770;BME280;6597;52.218;9.882;2022-07-05T06:05:47;101311.97;;;16.89;88.58
43770;BME280;6597;52.218;9.882;2022-07-05T06:08:14;101313.50;;;17.10;87.77
43770;BME280;6597;52.218;9.882;2022-07-05T06:10:41;101319.66;;;17.44;86.40
43770;BME280;6597;52.218;9.882;2022-07-05T06:13:09;101309.66;;;17.65;84.44
43770;BME280;6597;52.218;9.882;2022-07-05T06:15:36;101315.31;;;17.75;81.93
43770;BME280;6597;52.218;9.882;2022-07-05T06:18:06;101313.78;;;17.70;81.42
43770;BME280;6597;52.218;9.882;2022-07-05T06:20:36;101314.88;;;17.66;81.23
43770;BME280;6597;52.218;9.882;2022-07-05T06:23:04;101319.28;;;17.67;81.35
43770;BME280;6597;52.218;9.882;2022-07-05T06:25:31;101321.94;;;17.67;81.38
43770;BME280;6597;52.218;9.882;2022-07-05T06:27:59;101325.69;;;17.95;80.32
43770;BME280;6597;52.218;9.882;2022-07-05T06:30:32;101323.97;;;18.40;77.21
43770;BME280;6597;52.218;9.882;2022-07-05T06:32:58;101321.25;;;18.71;76.25
43770;BME280;6597;52.218;9.882;2022-07-05T06:35:26;101321.19;;;18.87;75.69
43770;BME280;6597;52.218;9.882;2022-07-05T06:37:54;101325.09;;;18.95;75.34
43770;BME280;6597;52.218;9.882;2022-07-05T06:40:24;101324.34;;;19.08;74.91
43770;BME280;6597;52.218;9.882;2022-07-05T06:42:51;101322.81;;;19.32;73.24
43770;BME280;6597;52.218;9.882;2022-07-05T06:45:22;101330.81;;;19.61;72.40
43770;BME280;6597;52.218;9.882;2022-07-05T06:47:54;101327.50;;;19.98;71.65
43770;BME280;6597;52.218;9.882;2022-07-05T06:50:21;101328.25;;;20.27;68.63
43770;BME280;6597;52.218;9.882;2022-07-05T06:52:49;101331.13;;;20.51;67.13
43770;BME280;6597;52.218;9.882;2022-07-05T06:55:15;101329.63;;;20.60;65.96
43770;BME280;6597;52.218;9.882;2022-07-05T06:57:42;101330.19;;;20.77;65.06
43770;BME280;6597;52.218;9.882;2022-07-05T07:00:11;101334.03;;;20.99;63.17
43770;BME280;6597;52.218;9.882;2022-07-05T07:02:38;101331.69;;;21.20;62.41
43770;BME280;6597;52.218;9.882;2022-07-05T07:05:06;101327.66;;;21.27;59.34
43770;BME280;6597;52.218;9.882;2022-07-05T07:07:33;101330.72;;;21.46;58.74
43770;BME280;6597;52.218;9.882;2022-07-05T07:10:19;101332.47;;;21.71;57.57
43770;BME280;6597;52.218;9.882;2022-07-05T07:12:46;101327.78;;;21.98;55.24
43770;BME280;6597;52.218;9.882;2022-07-05T07:15:12;101323.91;;;22.02;55.36
43770;BME280;6597;52.218;9.882;2022-07-05T07:17:39;101330.44;;;22.11;54.60
43770;BME280;6597;52.218;9.882;2022-07-05T07:20:06;101334.38;;;22.18;54.74
43770;BME280;6597;52.218;9.882;2022-07-05T07:22:33;101329.53;;;22.23;52.13
43770;BME280;6597;52.218;9.882;2022-07-05T07:25:00;101333.91;;;22.24;52.34
43770;BME280;6597;52.218;9.882;2022-07-05T07:27:28;101326.41;;;22.29;51.36
43770;BME280;6597;52.218;9.882;2022-07-05T07:29:55;101336.41;;;22.39;51.19
43770;BME280;6597;52.218;9.882;2022-07-05T07:32:22;101340.97;;;22.60;49.41
43770;BME280;6597;52.218;9.882;2022-07-05T07:34:49;101332.94;;;22.84;49.09
43770;BME280;6597;52.218;9.882;2022-07-05T07:37:15;101337.44;;;22.95;46.70
43770;BME280;6597;52.218;9.882;2022-07-05T07:39:44;101340.25;;;22.93;46.78
43770;BME280;6597;52.218;9.882;2022-07-05T07:42:10;101339.41;;;22.69;46.71
43770;BME280;6597;52.218;9.882;2022-07-05T07:44:38;101340.78;;;22.75;47.81
43770;BME280;6597;52.218;9.882;2022-07-05T07:47:05;101336.59;;;22.83;48.21
43770;BME280;6597;52.218;9.882;2022-07-05T07:49:31;101333.69;;;23.09;48.11
43770;BME280;6597;52.218;9.882;2022-07-05T07:51:58;101327.59;;;23.07;45.85
43770;BME280;6597;52.218;9.882;2022-07-05T07:54:25;101329.78;;;23.02;46.12
43770;BME280;6597;52.218;9.882;2022-07-05T07:56:51;101336.84;;;22.91;45.94
43770;BME280;6597;52.218;9.882;2022-07-05T07:59:18;101339.19;;;23.18;44.20
43770;BME280;6597;52.218;9.882;2022-07-05T08:01:46;101328.25;;;23.44;43.82
43770;BME280;6597;52.218;9.882;2022-07-05T08:04:13;101341.13;;;23.72;42.11
43770;BME280;6597;52.218;9.882;2022-07-05T08:06:40;101336.44;;;23.97;42.10
43770;BME280;6597;52.218;9.882;2022-07-05T08:09:07;101333.75;;;24.08;41.98
43770;BME280;6597;52.218;9.882;2022-07-05T08:11:33;101335.25;;;24.33;42.00
43770;BME280;6597;52.218;9.882;2022-07-05T08:14:00;101337.56;;;24.37;42.00
43770;BME280;6597;52.218;9.882;2022-07-05T08:16:26;101334.75;;;24.39;41.93
43770;BME280;6597;52.218;9.882;2022-07-05T08:18:54;101328.16;;;24.43;43.12
43770;BME280;6597;52.218;9.882;2022-07-05T08:21:38;101338.56;;;24.57;42.71
43770;BME280;6597;52.218;9.882;2022-07-05T08:24:06;101330.97;;;24.62;41.40
43770;BME280;6597;52.218;9.882;2022-07-05T08:26:34;101336.41;;;24.51;42.55
43770;BME280;6597;52.218;9.882;2022-07-05T08:29:02;101338.63;;;24.67;41.10
43770;BME280;6597;52.218;9.882;2022-07-05T08:31:31;101337.94;;;24.33;40.57
43770;BME280;6597;52.218;9.882;2022-07-05T08:33:59;101334.53;;;23.87;42.52
43770;BME280;6597;52.218;9.882;2022-07-05T08:36:26;101319.09;;;23.69;43.56
43770;BME280;6597;52.218;9.882;2022-07-05T08:38:53;101328.94;;;23.68;41.50
43770;BME280;6597;52.218;9.882;2022-07-05T08:41:20;101325.91;;;23.73;41.13
43770;BME280;6597;52.218;9.882;2022-07-05T08:43:48;101326.91;;;24.04;42.08
43770;BME280;6597;52.218;9.882;2022-07-05T08:46:18;101326.22;;;24.34;40.99
43770;BME280;6597;52.218;9.882;2022-07-05T08:48:47;101324.16;;;24.26;41.16
43770;BME280;6597;52.218;9.882;2022-07-05T08:51:16;101332.47;;;24.23;41.55
43770;BME280;6597;52.218;9.882;2022-07-05T08:53:44;101322.38;;;24.15;41.51
43770;BME280;6597;52.218;9.882;2022-07-05T08:56:12;101328.34;;;24.19;41.91
43770;BME280;6597;52.218;9.882;2022-07-05T08:58:39;101329.53;;;24.58;39.70
43770;BME280;6597;52.218;9.882;2022-07-05T09:01:08;101330.53;;;24.78;39.99
43770;BME280;6597;52.218;9.882;2022-07-05T09:03:38;101330.50;;;25.20;39.53
43770;BME280;6597;52.218;9.882;2022-07-05T09:06:08;101331.34;;;25.20;39.29
43770;BME280;6597;52.218;9.882;2022-07-05T09:08:37;101337.47;;;24.80;39.39
43770;BME280;6597;52.218;9.882;2022-07-05T09:11:06;101331.88;;;24.19;40.10
43770;BME280;6597;52.218;9.882;2022-07-05T09:13:34;101333.25;;;24.03;40.61
43770;BME280;6597;52.218;9.882;2022-07-05T09:16:02;101330.19;;;24.18;41.48
43770;BME280;6597;52.218;9.882;2022-07-05T09:18:39;101334.25;;;24.66;38.10
43770;BME280;6597;52.218;9.882;2022-07-05T09:21:14;101326.50;;;25.04;38.37
43770;BME280;6597;52.218;9.882;2022-07-05T09:23:42;101324.69;;;25.45;37.35
43770;BME280;6597;52.218;9.882;2022-07-05T09:26:09;101331.31;;;25.71;35.81
43770;BME280;6597;52.218;9.882;2022-07-05T09:28:36;101326.13;;;25.59;36.24
43770;BME280;6597;52.218;9.882;2022-07-05T09:31:03;101331.31;;;25.41;35.57
43770;BME280;6597;52.218;9.882;2022-07-05T09:33:29;101341.69;;;25.25;36.11
43770;BME280;6597;52.218;9.882;2022-07-05T09:35:57;101329.00;;;25.36;36.68
43770;BME280;6597;52.218;9.882;2022-07-05T09:38:24;101332.47;;;25.48;35.67
43770;BME280;6597;52.218;9.882;2022-07-05T09:40:54;101322.78;;;25.66;35.70
43770;BME280;6597;52.218;9.882;2022-07-05T09:43:22;101331.09;;;26.03;35.85
43770;BME280;6597;52.218;9.882;2022-07-05T09:45:53;101328.97;;;26.26;35.36
43770;BME280;6597;52.218;9.882;2022-07-05T09:48:20;101319.66;;;26.50;34.46
43770;BME280;6597;52.218;9.882;2022-07-05T09:50:48;101322.03;;;26.62;34.97
43770;BME280;6597;52.218;9.882;2022-07-05T09:53:15;101310.44;;;26.43;35.08
43770;BME280;6597;52.218;9.882;2022-07-05T09:55:42;101322.03;;;26.53;34.88
43770;BME280;6597;52.218;9.882;2022-07-05T09:58:12;101313.97;;;26.33;34.57
43770;BME280;6597;52.218;9.882;2022-07-05T10:00:39;101331.59;;;25.78;34.99
43770;BME280;6597;52.218;9.882;2022-07-05T10:03:05;101320.81;;;25.68;36.45
43770;BME280;6597;52.218;9.882;2022-07-05T10:05:33;101320.72;;;25.99;35.92
43770;BME280;6597;52.218;9.882;2022-07-05T10:08:00;101317.63;;;26.03;34.51
43770;BME280;6597;52.218;9.882;2022-07-05T10:10:29;101326.22;;;25.78;35.27
43770;BME280;6597;52.218;9.882;2022-07-05T10:12:57;101329.16;;;25.35;35.22
43770;BME280;6597;52.218;9.882;2022-07-05T10:15:26;101334.38;;;24.85;36.36
43770;BME280;6597;52.218;9.882;2022-07-05T10:17:57;101331.97;;;24.40;37.05
43770;BME280;6597;52.218;9.882;2022-07-05T10:20:28;101324.09;;;24.05;36.93
43770;BME280;6597;52.218;9.882;2022-07-05T10:23:02;101324.94;;;24.17;37.46
43770;BME280;6597;52.218;9.882;2022-07-05T10:25:29;101322.88;;;24.73;37.05
43770;BME280;6597;52.218;9.882;2022-07-05T10:27:56;101322.91;;;25.04;35.82
43770;BME280;6597;52.218;9.882;2022-07-05T10:30:25;101329.75;;;25.38;35.02
43770;BME280;6597;52.218;9.882;2022-07-05T10:32:51;101320.72;;;25.80;34.51
43770;BME280;6597;52.218;9.882;2022-07-05T10:35:18;101329.06;;;25.86;33.10
43770;BME280;6597;52.218;9.882;2022-07-05T10:37:47;101313.69;;;25.58;34.47
43770;BME280;6597;52.218;9.882;2022-07-05T10:40:15;101330.94;;;25.55;35.68
43770;BME280;6597;52.218;9.882;2022-07-05T10:42:46;101318.56;;;25.73;34.82
43770;BME280;6597;52.218;9.882;2022-07-05T10:45:28;101324.97;;;25.42;33.93
43770;BME280;6597;52.218;9.882;2022-07-05T10:48:15;101322.16;;;25.13;36.12
43770;BME280;6597;52.218;9.882;2022-07-05T10:50:46;101325.13;;;25.20;35.90
43770;BME280;6597;52.218;9.882;2022-07-05T10:53:14;101325.94;;;25.10;35.82
43770;BME280;6597;52.218;9.882;2022-07-05T10:55:56;101329.97;;;25.26;35.64
43770;BME280;6597;52.218;9.882;2022-07-05T10:58:26;101329.09;;;25.56;35.38
43770;BME280;6597;52.218;9.882;2022-07-05T11:01:32;101327.28;;;26.16;33.91
43770;BME280;6597;52.218;9.882;2022-07-05T11:04:32;101317.41;;;26.35;33.49
43770;BME280;6597;52.218;9.882;2022-07-05T11:07:01;101316.56;;;26.35;33.64
43770;BME280;6597;52.218;9.882;2022-07-05T11:09:28;101311.38;;;26.32;32.23
43770;BME280;6597;52.218;9.882;2022-07-05T11:12:03;101318.75;;;26.30;33.60
43770;BME280;6597;52.218;9.882;2022-07-05T11:14:36;101310.59;;;26.41;32.99
43770;BME280;6597;52.218;9.882;2022-07-05T11:20:25;101306.69;;;27.02;30.84
43770;BME280;6597;52.218;9.882;2022-07-05T11:23:04;101297.34;;;26.77;30.04
43770;BME280;6597;52.218;9.882;2022-07-05T11:25:32;101307.72;;;26.14;31.78
43770;BME280;6597;52.218;9.882;2022-07-05T11:28:00;101306.44;;;26.08;31.78
43770;BME280;6597;52.218;9.882;2022-07-05T11:30:27;101305.63;;;26.46;31.56
43770;BME280;6597;52.218;9.882;2022-07-05T11:32:58;101309.59;;;26.42;31.48
43770;BME280;6597;52.218;9.882;2022-07-05T11:35:31;101308.81;;;25.92;32.55
43770;BME280;6597;52.218;9.882;2022-07-05T11:38:00;101310.81;;;25.40;33.25
43770;BME280;6597;52.218;9.882;2022-07-05T11:40:30;101297.25;;;25.51;33.76
43770;BME280;6597;52.218;9.882;2022-07-05T11:42:57;101304.72;;;25.97;33.17
43770;BME280;6597;52.218;9.882;2022-07-05T11:45:24;101296.66;;;26.26;32.47
43770;BME280;6597;52.218;9.882;2022-07-05T11:47:54;101295.56;;;26.39;31.99
43770;BME280;6597;52.218;9.882;2022-07-05T11:50:30;101288.16;;;26.60;31.69
43770;BME280;6597;52.218;9.882;2022-07-05T11:52:57;101290.38;;;26.84;31.20
43770;BME280;6597;52.218;9.882;2022-07-05T11:55:25;101290.72;;;26.61;31.35
43770;BME280;6597;52.218;9.882;2022-07-05T11:57:53;101295.25;;;26.03;32.43
43770;BME280;6597;52.218;9.882;2022-07-05T12:00:28;101303.72;;;25.39;33.09
43770;BME280;6597;52.218;9.882;2022-07-05T12:02:56;101306.81;;;25.34;33.20
43770;BME280;6597;52.218;9.882;2022-07-05T12:05:23;101294.94;;;25.87;33.43
43770;BME280;6597;52.218;9.882;2022-07-05T12:07:51;101295.28;;;26.51;32.11
43770;BME280;6597;52.218;9.882;2022-07-05T12:10:19;101291.50;;;26.91;31.39
43770;BME280;6597;52.218;9.882;2022-07-05T12:13:05;101289.41;;;26.75;31.15
43770;BME280;6597;52.218;9.882;2022-07-05T12:15:33;101283.56;;;26.89;32.18
43770;BME280;6597;52.218;9.882;2022-07-05T12:18:02;101278.19;;;26.80;31.28
43770;BME280;6597;52.218;9.882;2022-07-05T12:20:31;101290.47;;;26.45;32.03
43770;BME280;6597;52.218;9.882;2022-07-05T12:22:58;101289.16;;;26.20;31.96
43770;BME280;6597;52.218;9.882;2022-07-05T12:25:27;101278.56;;;26.48;31.51
43770;BME280;6597;52.218;9.882;2022-07-05T12:27:55;101285.91;;;26.17;31.91
43770;BME280;6597;52.218;9.882;2022-07-05T12:30:22;101284.19;;;25.77;31.50
43770;BME280;6597;52.218;9.882;2022-07-05T12:32:58;101284.66;;;25.52;32.79
43770;BME280;6597;52.218;9.882;2022-07-05T12:35:36;101280.00;;;25.54;32.65
43770;BME280;6597;52.218;9.882;2022-07-05T12:38:07;101282.34;;;26.26;32.40
43770;BME280;6597;52.218;9.882;2022-07-05T12:40:35;101268.28;;;26.80;31.21
43770;BME280;6597;52.218;9.882;2022-07-05T12:43:04;101267.50;;;26.97;30.72
43770;BME280;6597;52.218;9.882;2022-07-05T12:45:31;101271.97;;;26.79;30.37
43770;BME280;6597;52.218;9.882;2022-07-05T12:48:00;101268.16;;;26.62;31.47
43770;BME280;6597;52.218;9.882;2022-07-05T12:50:28;101280.09;;;26.60;31.25
43770;BME280;6597;52.218;9.882;2022-07-05T12:52:59;101275.28;;;25.96;30.38
43770;BME280;6597;52.218;9.882;2022-07-05T12:55:33;101273.28;;;25.88;32.31
43770;BME280;6597;52.218;9.882;2022-07-05T12:58:18;101269.63;;;26.09;31.87
43770;BME280;6597;52.218;9.882;2022-07-05T13:00:45;101275.25;;;26.63;30.27
43770;BME280;6597;52.218;9.882;2022-07-05T13:03:12;101270.84;;;27.19;30.21
43770;BME280;6597;52.218;9.882;2022-07-05T13:05:38;101267.25;;;27.28;29.76
43770;BME280;6597;52.218;9.882;2022-07-05T13:08:06;101265.66;;;27.08;30.40
43770;BME280;6597;52.218;9.882;2022-07-05T13:10:33;101283.56;;;27.26;29.58